createdAt,value
2018-07-31T00:00:58.664Z,17.73
2018-07-31T00:03:28.543Z,18.87
2018-07-31T00:05:58.648Z,17.10
2018-07-31T00:08:28.507Z,17.20
2018-07-31T00:10:58.532Z,17.40
2018-07-31T00:13:28.440Z,17.20
2018-07-31T00:15:58.333Z,17.60
2018-07-31T00:18:29.158Z,17.87
2018-07-31T00:20:59.138Z,17.43
2018-07-31T00:23:29.392Z,17.27
2018-07-31T00:25:59.275Z,17.23
2018-07-31T00:28:29.267Z,17.90
2018-07-31T00:30:59.219Z,18.00
2018-07-31T00:33:29.145Z,18.27
2018-07-31T00:35:59.149Z,21.10
2018-07-31T00:38:29.171Z,19.87
2018-07-31T00:40:59.160Z,21.80
2018-07-31T00:43:29.214Z,21.03
2018-07-31T00:45:59.311Z,21.97
2018-07-31T00:48:29.193Z,18.90
2018-07-31T00:50:59.173Z,17.33
2018-07-31T00:53:29.112Z,20.07
2018-07-31T00:55:58.811Z,24.87
2018-07-31T00:58:28.920Z,25.27
2018-07-31T01:00:59.842Z,22.97
2018-07-31T01:03:30.074Z,22.03
2018-07-31T01:06:00.096Z,20.93
2018-07-31T01:08:30.303Z,21.37
2018-07-31T01:11:00.296Z,22.37
2018-07-31T01:13:30.568Z,22.93
2018-07-31T01:16:00.515Z,22.70
2018-07-31T01:18:30.603Z,23.13
2018-07-31T01:21:01.248Z,23.37
2018-07-31T01:23:31.461Z,22.10
2018-07-31T01:26:01.479Z,20.83
2018-07-31T01:28:31.404Z,19.53
2018-07-31T01:31:01.244Z,20.00
2018-07-31T01:33:31.199Z,20.47
2018-07-31T01:36:01.382Z,20.07
2018-07-31T01:38:31.288Z,21.40
2018-07-31T01:41:01.384Z,22.67
2018-07-31T01:43:31.472Z,26.10
2018-07-31T01:46:01.510Z,25.03
2018-07-31T01:48:31.913Z,25.40
2018-07-31T01:51:07.620Z,25.67
2018-07-31T01:53:37.835Z,27.07
2018-07-31T01:56:07.698Z,25.33
2018-07-31T01:58:37.688Z,23.83
2018-07-31T02:01:07.640Z,23.13
2018-07-31T02:03:37.936Z,22.30
2018-07-31T02:06:08.986Z,20.27
2018-07-31T02:08:39.070Z,20.47
2018-07-31T02:11:09.241Z,21.30
2018-07-31T02:13:39.291Z,18.80
2018-07-31T02:16:09.156Z,18.70
2018-07-31T02:18:39.172Z,18.03
2018-07-31T02:21:09.176Z,19.13
2018-07-31T02:23:39.089Z,18.80
2018-07-31T02:26:09.103Z,16.67
2018-07-31T02:28:39.312Z,22.50
2018-07-31T02:31:09.905Z,16.20
2018-07-31T02:33:39.767Z,17.13
2018-07-31T02:36:09.771Z,16.70
2018-07-31T02:38:40.296Z,14.40
2018-07-31T02:41:10.277Z,13.77
2018-07-31T02:43:40.283Z,12.43
2018-07-31T02:46:10.328Z,14.67
2018-07-31T02:48:40.304Z,13.57
2018-07-31T02:51:10.605Z,15.07
2018-07-31T02:53:46.034Z,16.30
2018-07-31T02:56:15.895Z,16.43
2018-07-31T02:58:45.840Z,15.30
2018-07-31T03:01:15.760Z,15.57
2018-07-31T03:03:45.992Z,15.37
2018-07-31T03:06:16.967Z,15.30
2018-07-31T03:08:47.129Z,15.03
2018-07-31T03:11:17.148Z,15.10
2018-07-31T03:13:47.472Z,15.67
2018-07-31T03:16:17.464Z,15.63
2018-07-31T03:18:47.661Z,15.87
2018-07-31T03:21:17.675Z,14.80
2018-07-31T03:23:47.649Z,14.97
2018-07-31T03:26:17.891Z,15.23
2018-07-31T03:28:47.791Z,14.23
2018-07-31T03:31:17.701Z,13.50
2018-07-31T03:33:47.822Z,11.80
2018-07-31T03:36:17.662Z,12.40
2018-07-31T03:38:47.572Z,12.67
2018-07-31T03:41:17.562Z,11.43
2018-07-31T03:43:47.652Z,12.20
2018-07-31T03:46:17.668Z,64.83
2018-07-31T03:48:47.620Z,17.77
2018-07-31T03:51:17.848Z,13.17
2018-07-31T03:53:53.259Z,12.50
2018-07-31T03:56:23.211Z,11.20
2018-07-31T03:58:53.052Z,10.57
2018-07-31T04:01:23.048Z,10.07
2018-07-31T04:03:53.076Z,9.87
2018-07-31T04:06:23.423Z,10.43
2018-07-31T04:08:53.682Z,9.53
2018-07-31T04:11:23.941Z,10.60
2018-07-31T04:13:53.928Z,9.17
2018-07-31T04:16:23.995Z,9.67
2018-07-31T04:18:54.379Z,9.20
2018-07-31T04:21:24.668Z,8.63
2018-07-31T04:23:55.140Z,8.70
2018-07-31T04:26:25.183Z,9.03
2018-07-31T04:28:55.078Z,9.43
2018-07-31T04:31:25.173Z,9.70
2018-07-31T04:33:55.202Z,9.90
2018-07-31T04:36:25.330Z,11.67
2018-07-31T04:38:55.245Z,13.07
2018-07-31T04:41:25.068Z,11.20
2018-07-31T04:43:54.923Z,13.73
2018-07-31T04:46:25.132Z,12.57
2018-07-31T04:48:55.153Z,13.07
2018-07-31T04:51:25.145Z,17.27
2018-07-31T04:53:54.977Z,14.00
2018-07-31T04:56:24.857Z,15.90
2018-07-31T04:58:54.917Z,13.70
2018-07-31T05:01:24.888Z,14.37
2018-07-31T05:03:55.080Z,14.07
2018-07-31T05:06:25.416Z,15.90
2018-07-31T05:08:55.420Z,18.20
2018-07-31T05:11:25.508Z,16.33
2018-07-31T05:13:55.427Z,15.10
2018-07-31T05:16:25.415Z,14.50
2018-07-31T05:18:55.362Z,14.80
2018-07-31T05:21:25.449Z,14.57
2018-07-31T05:23:55.420Z,14.43
2018-07-31T05:26:25.877Z,14.13
2018-07-31T05:28:56.252Z,14.37
2018-07-31T05:31:27.448Z,14.30
2018-07-31T05:33:57.795Z,15.43
2018-07-31T05:36:28.131Z,15.00
2018-07-31T05:38:58.616Z,16.37
2018-07-31T05:41:28.632Z,17.23
2018-07-31T05:43:58.508Z,16.63
2018-07-31T05:46:28.425Z,17.20
2018-07-31T05:48:58.736Z,15.17
2018-07-31T05:51:28.777Z,15.20
2018-07-31T05:53:58.884Z,17.10
2018-07-31T05:56:28.830Z,14.87
2018-07-31T05:58:58.943Z,14.67
2018-07-31T06:01:29.087Z,13.10
2018-07-31T06:03:59.245Z,17.67
2018-07-31T06:06:29.700Z,10.57
2018-07-31T06:08:59.716Z,15.17
2018-07-31T06:11:29.780Z,14.23
2018-07-31T06:13:59.905Z,12.67
2018-07-31T06:16:30.186Z,12.80
2018-07-31T06:19:00.283Z,12.60
2018-07-31T06:21:30.291Z,12.83
2018-07-31T06:24:00.549Z,9.93
2018-07-31T06:26:30.939Z,7.90
2018-07-31T06:29:01.060Z,6.87
2018-07-31T06:31:31.754Z,8.00
2018-07-31T06:34:02.076Z,6.60
2018-07-31T06:36:32.046Z,9.27
2018-07-31T06:39:02.656Z,7.57
2018-07-31T06:41:33.118Z,6.93
2018-07-31T06:44:03.979Z,6.50
2018-07-31T06:46:34.472Z,5.93
2018-07-31T06:49:04.857Z,6.13
2018-07-31T06:51:34.818Z,5.83
2018-07-31T06:54:04.949Z,5.63
2018-07-31T06:56:34.702Z,5.57
2018-07-31T06:59:04.560Z,5.73
2018-07-31T07:01:34.732Z,5.90
2018-07-31T07:04:05.220Z,6.40
2018-07-31T07:06:35.353Z,6.13
2018-07-31T07:09:08.286Z,6.27
2018-07-31T07:11:38.612Z,5.93
2018-07-31T07:14:08.599Z,5.80
2018-07-31T07:16:39.059Z,5.77
2018-07-31T07:19:09.208Z,6.00
2018-07-31T07:21:39.440Z,6.30
2018-07-31T07:24:09.488Z,5.90
2018-07-31T07:26:39.483Z,10.20
2018-07-31T07:29:09.480Z,10.23
2018-07-31T07:31:39.531Z,10.37
2018-07-31T07:34:09.959Z,10.97
2018-07-31T07:36:40.041Z,9.97
2018-07-31T07:39:12.241Z,10.60
2018-07-31T07:41:42.449Z,9.63
2018-07-31T07:44:12.584Z,9.83
2018-07-31T07:46:42.776Z,8.90
2018-07-31T07:49:13.099Z,9.80
2018-07-31T07:51:43.352Z,9.03
2018-07-31T07:54:13.666Z,9.97
2018-07-31T07:56:43.525Z,9.53
2018-07-31T07:59:13.744Z,10.57
2018-07-31T08:01:43.787Z,10.57
2018-07-31T08:04:14.289Z,9.87
2018-07-31T08:06:44.841Z,8.93
2018-07-31T08:09:14.976Z,8.43
2018-07-31T08:11:44.860Z,8.10
2018-07-31T08:14:15.217Z,8.40
2018-07-31T08:16:45.759Z,7.50
2018-07-31T08:19:15.697Z,8.27
2018-07-31T08:21:45.608Z,8.27
2018-07-31T08:24:15.711Z,8.90
2018-07-31T08:26:45.736Z,9.03
2018-07-31T08:29:15.680Z,8.03
2018-07-31T08:31:46.064Z,9.40
2018-07-31T08:34:16.057Z,10.97
2018-07-31T08:36:46.066Z,8.70
2018-07-31T08:39:16.047Z,8.63
2018-07-31T08:41:45.968Z,8.20
2018-07-31T08:44:16.183Z,7.53
2018-07-31T08:46:46.614Z,6.30
2018-07-31T08:49:16.795Z,6.60
2018-07-31T08:51:46.716Z,6.37
2018-07-31T08:54:16.538Z,6.07
2018-07-31T08:56:46.362Z,6.60
2018-07-31T08:59:16.731Z,6.43
2018-07-31T09:01:46.617Z,6.37
2018-07-31T09:04:16.656Z,7.10
2018-07-31T09:06:46.747Z,7.00
2018-07-31T09:09:16.640Z,6.70
2018-07-31T09:11:46.593Z,6.17
2018-07-31T09:14:16.924Z,5.80
2018-07-31T09:16:46.972Z,5.60
2018-07-31T09:19:16.914Z,5.63
2018-07-31T09:21:46.887Z,5.57
2018-07-31T09:24:17.077Z,6.30
2018-07-31T09:26:46.956Z,5.80
2018-07-31T09:29:16.975Z,5.80
2018-07-31T09:31:46.960Z,5.93
2018-07-31T09:34:16.824Z,5.83
2018-07-31T09:36:46.796Z,5.97
2018-07-31T09:39:16.760Z,5.77
2018-07-31T09:41:47.053Z,7.33
2018-07-31T09:44:17.465Z,5.90
2018-07-31T09:46:47.327Z,6.30
2018-07-31T09:49:17.314Z,6.20
2018-07-31T09:51:47.659Z,6.07
2018-07-31T09:54:17.742Z,6.30
2018-07-31T09:56:47.852Z,6.20
2018-07-31T09:59:17.992Z,5.67
2018-07-31T10:01:48.311Z,6.10
2018-07-31T10:04:18.424Z,6.67
2018-07-31T10:06:48.736Z,5.97
2018-07-31T10:09:18.930Z,6.00
2018-07-31T10:11:49.432Z,5.83
2018-07-31T10:14:19.641Z,5.73
2018-07-31T10:16:49.617Z,5.80
2018-07-31T10:19:20.078Z,5.60
2018-07-31T10:21:50.032Z,5.40
2018-07-31T10:24:19.983Z,8.73
2018-07-31T10:26:50.008Z,5.90
2018-07-31T10:29:19.979Z,6.60
2018-07-31T10:31:50.024Z,6.23
2018-07-31T10:34:20.395Z,6.40
2018-07-31T10:36:50.418Z,6.33
2018-07-31T10:39:20.323Z,6.57
2018-07-31T10:41:50.261Z,5.90
2018-07-31T10:44:20.446Z,5.93
2018-07-31T10:46:50.291Z,5.40
2018-07-31T10:49:20.343Z,6.50
2018-07-31T10:51:50.211Z,6.10
2018-07-31T10:54:20.123Z,5.77
2018-07-31T10:56:50.046Z,6.37
2018-07-31T10:59:20.401Z,6.70
2018-07-31T11:01:50.602Z,8.13
2018-07-31T11:04:20.816Z,7.43
2018-07-31T11:06:51.329Z,7.10
2018-07-31T11:09:21.668Z,6.10
2018-07-31T11:11:51.993Z,6.90
2018-07-31T11:14:21.907Z,5.47
2018-07-31T11:16:52.098Z,6.60
2018-07-31T11:19:22.456Z,6.00
2018-07-31T11:21:52.596Z,5.77
2018-07-31T11:24:22.459Z,6.43
2018-07-31T11:26:52.636Z,6.53
2018-07-31T11:29:22.596Z,6.00
2018-07-31T11:31:54.379Z,5.77
2018-07-31T11:34:24.827Z,5.93
2018-07-31T11:36:54.681Z,5.80
2018-07-31T11:39:24.781Z,5.97
2018-07-31T11:41:54.644Z,5.50
2018-07-31T11:44:24.681Z,6.40
2018-07-31T11:46:54.582Z,5.93
2018-07-31T11:49:24.944Z,6.53
2018-07-31T11:51:54.884Z,6.30
2018-07-31T11:54:24.673Z,6.37
2018-07-31T11:56:54.480Z,5.90
2018-07-31T11:59:24.363Z,5.80
2018-07-31T12:01:54.335Z,5.97
2018-07-31T12:04:24.501Z,5.43
2018-07-31T12:06:54.727Z,5.37
2018-07-31T12:09:24.713Z,13.30
2018-07-31T12:11:55.072Z,5.17
2018-07-31T12:14:24.965Z,5.50
2018-07-31T12:16:55.128Z,5.60
2018-07-31T12:19:25.108Z,5.30
2018-07-31T12:21:55.725Z,8.30
2018-07-31T12:24:26.100Z,5.60
2018-07-31T12:26:56.028Z,5.63
2018-07-31T12:29:26.920Z,6.17
2018-07-31T12:31:57.078Z,5.50
2018-07-31T12:34:27.366Z,6.40
2018-07-31T12:36:57.323Z,5.93
2018-07-31T12:39:27.335Z,6.53
2018-07-31T12:41:57.588Z,6.60
2018-07-31T12:44:27.640Z,7.77
2018-07-31T12:46:57.564Z,7.53
2018-07-31T12:49:27.556Z,7.03
2018-07-31T12:51:57.555Z,6.63
2018-07-31T12:54:27.432Z,7.17
2018-07-31T12:56:57.285Z,7.83
2018-07-31T12:59:27.493Z,7.20
2018-07-31T13:01:57.885Z,7.33
2018-07-31T13:04:27.793Z,7.50
2018-07-31T13:06:57.712Z,8.43
2018-07-31T13:09:27.991Z,8.20
2018-07-31T13:11:57.984Z,7.60
2018-07-31T13:14:28.288Z,8.37
2018-07-31T13:16:58.229Z,7.53
2018-07-31T13:19:28.075Z,7.70
2018-07-31T13:21:58.140Z,7.20
2018-07-31T13:24:28.028Z,7.60
2018-07-31T13:26:57.985Z,7.80
2018-07-31T13:29:28.184Z,8.47
2018-07-31T13:31:58.752Z,7.10
2018-07-31T13:34:30.328Z,7.63
2018-07-31T13:37:00.287Z,7.97
2018-07-31T13:39:30.204Z,7.37
2018-07-31T13:42:00.407Z,7.30
2018-07-31T13:44:30.400Z,6.20
2018-07-31T13:47:00.630Z,6.50
2018-07-31T13:49:30.944Z,7.17
2018-07-31T13:52:01.212Z,6.87
2018-07-31T13:54:31.811Z,6.57
2018-07-31T13:57:01.536Z,6.77
2018-07-31T13:59:31.562Z,6.73
2018-07-31T14:02:01.873Z,6.60
2018-07-31T14:04:32.245Z,7.00
2018-07-31T14:07:02.219Z,6.57
2018-07-31T14:09:32.417Z,7.03
2018-07-31T14:12:02.416Z,6.50
2018-07-31T14:14:32.356Z,6.43
2018-07-31T14:17:02.467Z,7.17
2018-07-31T14:19:32.520Z,6.93
2018-07-31T14:22:02.768Z,6.10
2018-07-31T14:24:32.729Z,6.23
2018-07-31T14:27:02.576Z,6.63
2018-07-31T14:29:32.600Z,6.70
2018-07-31T14:32:02.866Z,7.17
2018-07-31T14:34:32.927Z,6.70
2018-07-31T14:37:02.852Z,6.17
2018-07-31T14:39:33.091Z,6.20
2018-07-31T14:42:03.380Z,6.73
2018-07-31T14:44:33.708Z,6.07
2018-07-31T14:47:04.148Z,6.53
2018-07-31T14:49:34.112Z,6.17
2018-07-31T14:52:03.965Z,6.70
2018-07-31T14:54:33.789Z,6.10
2018-07-31T14:57:03.612Z,5.87
2018-07-31T14:59:33.499Z,6.03
2018-07-31T15:02:03.420Z,6.60
2018-07-31T15:04:33.367Z,6.10
2018-07-31T15:07:03.361Z,7.00
2018-07-31T15:09:33.371Z,6.53
2018-07-31T15:12:03.424Z,6.90
2018-07-31T15:14:33.304Z,7.10
2018-07-31T15:17:03.558Z,6.67
2018-07-31T15:19:33.460Z,12.87
2018-07-31T15:22:03.354Z,8.20
2018-07-31T15:24:33.288Z,7.23
2018-07-31T15:27:03.238Z,6.40
2018-07-31T15:29:33.264Z,7.00
2018-07-31T15:32:03.562Z,7.23
2018-07-31T15:34:33.992Z,6.97
2018-07-31T15:37:04.157Z,6.73
2018-07-31T15:39:34.327Z,6.73
2018-07-31T15:42:04.728Z,6.77
2018-07-31T15:44:34.907Z,7.13
2018-07-31T15:47:04.853Z,7.20
2018-07-31T15:49:35.194Z,6.90
2018-07-31T15:52:05.050Z,6.73
2018-07-31T15:54:34.956Z,6.27
2018-07-31T15:57:05.005Z,6.70
2018-07-31T15:59:35.347Z,6.03
2018-07-31T16:02:06.134Z,6.30
2018-07-31T16:04:36.259Z,5.37
2018-07-31T16:07:06.249Z,5.40
2018-07-31T16:09:36.320Z,5.50
2018-07-31T16:12:06.476Z,5.00
2018-07-31T16:14:36.331Z,4.73
2018-07-31T16:17:06.515Z,5.00
2018-07-31T16:19:36.696Z,4.50
2018-07-31T16:22:06.931Z,5.10
2018-07-31T16:24:36.890Z,4.83
2018-07-31T16:27:07.061Z,5.20
2018-07-31T16:29:37.400Z,5.20
2018-07-31T16:32:07.846Z,5.27
2018-07-31T16:34:38.268Z,5.30
2018-07-31T16:37:08.215Z,4.80
2018-07-31T16:39:38.629Z,5.70
2018-07-31T16:42:08.740Z,5.50
2018-07-31T16:44:38.768Z,5.63
2018-07-31T16:47:08.629Z,5.20
2018-07-31T16:49:38.604Z,5.27
2018-07-31T16:52:08.875Z,4.90
2018-07-31T16:54:38.668Z,12.30
2018-07-31T16:57:08.852Z,5.40
2018-07-31T16:59:38.891Z,5.77
2018-07-31T17:02:09.068Z,6.03
2018-07-31T17:04:39.046Z,6.40
2018-07-31T17:07:09.207Z,6.83
2018-07-31T17:09:39.380Z,6.47
2018-07-31T17:12:10.163Z,6.50
2018-07-31T17:14:40.152Z,6.80
2018-07-31T17:17:10.451Z,6.87
2018-07-31T17:19:41.046Z,6.70
2018-07-31T17:22:10.972Z,6.53
2018-07-31T17:24:41.384Z,7.30
2018-07-31T17:27:11.708Z,7.23
2018-07-31T17:29:41.707Z,8.20
2018-07-31T17:32:11.932Z,8.03
2018-07-31T17:34:42.352Z,7.80
2018-07-31T17:37:12.265Z,7.77
2018-07-31T17:39:42.155Z,7.30
2018-07-31T17:42:12.172Z,7.37
2018-07-31T17:44:42.779Z,7.60
2018-07-31T17:47:12.781Z,7.20
2018-07-31T17:49:42.814Z,7.53
2018-07-31T17:52:12.746Z,7.37
2018-07-31T17:54:42.916Z,7.70
2018-07-31T17:57:12.719Z,7.80
2018-07-31T17:59:48.908Z,7.50
2018-07-31T18:02:18.944Z,7.33
2018-07-31T18:04:48.840Z,8.83
2018-07-31T18:07:19.172Z,8.27
2018-07-31T18:09:49.157Z,6.57
2018-07-31T18:12:19.006Z,16.37
2018-07-31T18:14:48.900Z,6.70
2018-07-31T18:17:18.948Z,7.43
2018-07-31T18:19:48.889Z,6.77
2018-07-31T18:22:19.191Z,7.03
2018-07-31T18:24:49.392Z,7.07
2018-07-31T18:27:19.321Z,6.60
2018-07-31T18:29:49.303Z,6.10
2018-07-31T18:32:19.339Z,6.93
2018-07-31T18:34:49.413Z,6.93
2018-07-31T18:37:19.589Z,6.90
2018-07-31T18:39:49.609Z,7.43
2018-07-31T18:42:19.702Z,7.03
2018-07-31T18:44:49.649Z,7.17
2018-07-31T18:47:19.661Z,7.10
2018-07-31T18:49:49.551Z,7.93
2018-07-31T18:52:19.598Z,7.50
2018-07-31T18:54:49.338Z,8.00
2018-07-31T18:57:19.256Z,7.67
2018-07-31T18:59:49.783Z,7.70
2018-07-31T19:02:20.013Z,8.37
2018-07-31T19:04:50.166Z,7.63
2018-07-31T19:07:20.434Z,7.30
2018-07-31T19:09:50.488Z,8.10
2018-07-31T19:12:20.421Z,8.17
2018-07-31T19:14:50.357Z,8.80
2018-07-31T19:17:20.444Z,63.83
2018-07-31T19:19:50.880Z,10.40
2018-07-31T19:22:20.715Z,9.07
2018-07-31T19:24:50.747Z,8.40
2018-07-31T19:27:20.593Z,8.47
2018-07-31T19:29:50.817Z,9.40
2018-07-31T19:32:20.868Z,8.93
2018-07-31T19:35:01.258Z,8.47
2018-07-31T19:37:32.192Z,8.77
2018-07-31T19:40:02.134Z,8.80
2018-07-31T19:42:32.241Z,8.67
2018-07-31T19:45:02.305Z,22.53
2018-07-31T19:47:32.399Z,10.03
2018-07-31T19:50:02.669Z,9.37
2018-07-31T19:52:32.676Z,9.50
2018-07-31T19:55:02.498Z,8.97
2018-07-31T19:57:32.460Z,9.43
2018-07-31T20:00:02.561Z,9.50
2018-07-31T20:02:33.009Z,9.53
2018-07-31T20:05:02.884Z,10.07
2018-07-31T20:07:33.216Z,9.47
2018-07-31T20:10:03.208Z,8.93
2018-07-31T20:12:33.736Z,9.77
2018-07-31T20:15:03.816Z,10.50
2018-07-31T20:17:33.900Z,9.90
2018-07-31T20:20:03.852Z,9.30
2018-07-31T20:22:33.840Z,9.53
2018-07-31T20:25:04.432Z,10.40
2018-07-31T20:27:34.572Z,11.30
2018-07-31T20:30:05.551Z,9.10
2018-07-31T20:32:35.904Z,9.50
2018-07-31T20:35:06.004Z,9.53
2018-07-31T20:37:36.162Z,9.33
2018-07-31T20:40:06.140Z,9.13
2018-07-31T20:42:36.256Z,10.30
2018-07-31T20:45:06.449Z,10.00
2018-07-31T20:47:36.964Z,10.10
2018-07-31T20:50:06.917Z,10.80
2018-07-31T20:52:37.305Z,12.00
2018-07-31T20:55:07.230Z,11.60
2018-07-31T20:57:37.855Z,12.50
2018-07-31T21:00:08.027Z,11.50
2018-07-31T21:02:38.207Z,10.67
2018-07-31T21:05:08.071Z,11.83
2018-07-31T21:07:38.985Z,11.00
2018-07-31T21:10:09.099Z,10.73
2018-07-31T21:12:39.052Z,10.27
2018-07-31T21:15:08.942Z,10.83
2018-07-31T21:17:39.117Z,11.03
2018-07-31T21:20:09.567Z,11.83
2018-07-31T21:22:39.649Z,11.17
2018-07-31T21:25:09.999Z,11.73
2018-07-31T21:27:40.651Z,11.53
2018-07-31T21:30:10.596Z,14.00
2018-07-31T21:32:40.632Z,14.33
2018-07-31T21:35:10.716Z,14.40
2018-07-31T21:37:40.635Z,13.70
2018-07-31T21:40:10.632Z,12.77
2018-07-31T21:42:40.690Z,11.80
2018-07-31T21:45:10.804Z,11.90
2018-07-31T21:47:41.342Z,12.50
2018-07-31T21:50:11.816Z,12.50
2018-07-31T21:52:41.793Z,12.37
2018-07-31T21:55:11.835Z,12.30
2018-07-31T21:57:41.839Z,12.33
2018-07-31T22:00:12.397Z,13.20
2018-07-31T22:02:42.311Z,15.60
2018-07-31T22:05:12.448Z,16.77
2018-07-31T22:07:42.529Z,14.63
2018-07-31T22:10:12.641Z,13.37
2018-07-31T22:12:44.934Z,13.57
2018-07-31T22:15:14.871Z,13.87
2018-07-31T22:17:45.076Z,13.30
2018-07-31T22:20:15.284Z,13.83
2018-07-31T22:22:45.555Z,14.30
2018-07-31T22:25:15.928Z,13.90
2018-07-31T22:27:45.927Z,16.67
2018-07-31T22:30:15.928Z,16.60
2018-07-31T22:32:46.044Z,15.77
2018-07-31T22:35:16.175Z,14.50
2018-07-31T22:37:45.939Z,15.90
2018-07-31T22:40:16.008Z,15.20
2018-07-31T22:42:46.056Z,15.17
2018-07-31T22:45:16.064Z,15.37
2018-07-31T22:47:46.212Z,16.23
2018-07-31T22:50:16.189Z,17.83
2018-07-31T22:52:46.129Z,20.93
2018-07-31T22:55:15.857Z,20.77
2018-07-31T22:57:45.816Z,19.67
2018-07-31T23:00:15.771Z,20.03
2018-07-31T23:02:45.772Z,21.03
2018-07-31T23:05:15.894Z,20.67
2018-07-31T23:07:45.915Z,21.37
2018-07-31T23:10:19.855Z,19.73
2018-07-31T23:12:50.434Z,21.20
2018-07-31T23:15:20.614Z,20.83
2018-07-31T23:17:50.798Z,21.03
2018-07-31T23:20:20.724Z,19.23
2018-07-31T23:22:51.808Z,20.40
2018-07-31T23:25:22.472Z,20.53
2018-07-31T23:27:53.068Z,19.30
2018-07-31T23:30:23.160Z,18.67
2018-07-31T23:32:53.692Z,16.73
2018-07-31T23:35:23.818Z,17.07
2018-07-31T23:37:54.001Z,15.93
2018-07-31T23:40:23.927Z,16.60
2018-07-31T23:42:54.044Z,15.33
2018-07-31T23:45:24.054Z,16.43
2018-07-31T23:47:54.241Z,15.77
2018-07-31T23:50:24.211Z,14.43
2018-07-31T23:52:54.309Z,15.20
2018-07-31T23:55:24.129Z,14.93
2018-07-31T23:57:54.544Z,14.40
